createdAt,value
2018-05-03T00:01:30.692Z,15.80
2018-05-03T00:03:59.006Z,17.13
2018-05-03T00:06:27.838Z,20.30
2018-05-03T00:08:55.903Z,18.07
2018-05-03T00:11:24.116Z,15.70
2018-05-03T00:13:52.185Z,16.30
2018-05-03T00:16:20.247Z,18.40
2018-05-03T00:18:48.423Z,18.17
2018-05-03T00:21:16.488Z,17.47
2018-05-03T00:23:44.557Z,17.07
2018-05-03T00:26:12.857Z,18.70
2018-05-03T00:28:41.690Z,16.03
2018-05-03T00:31:09.759Z,18.80
2018-05-03T00:33:38.771Z,17.77
2018-05-03T00:36:06.863Z,21.07
2018-05-03T00:38:34.929Z,16.87
2018-05-03T00:41:03.424Z,17.30
2018-05-03T00:43:31.519Z,17.33
2018-05-03T00:46:00.349Z,19.93
2018-05-03T00:48:28.509Z,20.20
2018-05-03T00:50:56.586Z,16.37
2018-05-03T00:53:24.653Z,20.33
2018-05-03T00:55:53.379Z,19.93
2018-05-03T00:58:21.437Z,16.10
2018-05-03T01:00:49.513Z,20.03
2018-05-03T01:03:18.212Z,17.13
2018-05-03T01:05:46.285Z,16.37
2018-05-03T01:08:14.356Z,19.30
2018-05-03T01:10:43.035Z,20.63
2018-05-03T01:13:11.103Z,28.00
2018-05-03T01:15:39.178Z,20.50
2018-05-03T01:18:07.584Z,17.87
2018-05-03T01:20:36.429Z,18.20
2018-05-03T01:23:04.518Z,24.80
2018-05-03T01:25:33.012Z,23.33
2018-05-03T01:28:01.682Z,23.63
2018-05-03T01:30:29.772Z,21.70
2018-05-03T01:32:58.604Z,24.50
2018-05-03T01:35:38.628Z,21.33
2018-05-03T01:38:07.812Z,19.93
2018-05-03T01:40:36.644Z,20.93
2018-05-03T01:43:04.860Z,23.30
2018-05-03T01:45:32.954Z,23.10
2018-05-03T01:48:01.806Z,23.77
2018-05-03T01:50:30.290Z,24.70
2018-05-03T01:52:58.370Z,25.37
2018-05-03T01:55:26.432Z,32.40
2018-05-03T01:57:54.865Z,30.70
2018-05-03T02:00:22.931Z,22.37
2018-05-03T02:02:50.990Z,24.97
2018-05-03T02:05:19.981Z,29.10
2018-05-03T02:07:48.819Z,23.57
2018-05-03T02:10:16.881Z,27.30
2018-05-03T02:12:45.409Z,27.07
2018-05-03T02:15:13.473Z,30.03
2018-05-03T02:17:41.542Z,24.07
2018-05-03T02:20:09.925Z,23.90
2018-05-03T02:22:38.002Z,26.33
2018-05-03T02:25:06.069Z,28.30
2018-05-03T02:27:34.471Z,26.80
2018-05-03T02:30:03.328Z,25.20
2018-05-03T02:32:31.399Z,29.70
2018-05-03T02:34:59.897Z,32.53
2018-05-03T02:37:28.426Z,29.43
2018-05-03T02:39:56.494Z,31.67
2018-05-03T02:42:25.026Z,30.53
2018-05-03T02:44:53.093Z,32.80
2018-05-03T02:47:21.155Z,36.93
2018-05-03T02:49:49.557Z,35.40
2018-05-03T02:52:18.384Z,36.10
2018-05-03T02:54:46.448Z,30.97
2018-05-03T02:57:26.327Z,37.97
2018-05-03T03:00:06.222Z,36.43
2018-05-03T03:02:51.858Z,36.37
2018-05-03T03:05:49.014Z,45.50
2018-05-03T03:08:47.322Z,33.77
2018-05-03T03:11:40.757Z,48.77
2018-05-03T03:14:27.085Z,36.43
2018-05-03T03:17:12.725Z,36.77
2018-05-03T03:34:04.139Z,43.70
2018-05-03T03:40:14.418Z,40.67
2018-05-03T03:43:06.479Z,45.90
2018-05-03T03:45:34.556Z,40.13
2018-05-03T03:48:03.031Z,43.13
2018-05-03T03:50:31.130Z,44.70
2018-05-03T03:52:59.962Z,43.93
2018-05-03T03:55:28.472Z,54.33
2018-05-03T03:57:56.552Z,44.60
2018-05-03T04:00:24.626Z,45.10
2018-05-03T04:02:53.020Z,43.53
2018-05-03T04:05:21.858Z,46.50
2018-05-03T04:07:49.904Z,48.97
2018-05-03T04:10:18.446Z,50.13
2018-05-03T04:12:46.503Z,52.50
2018-05-03T04:15:14.568Z,47.70
2018-05-03T04:17:54.481Z,52.93
2018-05-03T04:20:40.077Z,47.13
2018-05-03T04:23:10.960Z,47.83
2018-05-03T04:25:50.622Z,49.67
2018-05-03T04:28:19.790Z,46.80
2018-05-03T04:30:47.848Z,50.50
2018-05-03T04:33:15.926Z,54.20
2018-05-03T04:35:44.322Z,49.63
2018-05-03T04:38:12.388Z,50.90
2018-05-03T04:40:40.928Z,53.20
2018-05-03T04:43:09.441Z,50.33
2018-05-03T04:45:37.549Z,54.07
2018-05-03T04:48:06.365Z,54.37
2018-05-03T04:50:34.876Z,52.90
2018-05-03T04:53:02.968Z,51.00
2018-05-03T04:55:31.029Z,49.60
2018-05-03T04:57:59.399Z,49.90
2018-05-03T05:00:27.478Z,55.40
2018-05-03T05:02:55.539Z,54.07
2018-05-03T05:05:23.919Z,52.70
2018-05-03T05:07:52.013Z,60.80
2018-05-03T05:10:20.077Z,51.50
2018-05-03T05:12:48.177Z,52.60
2018-05-03T05:15:17.035Z,54.10
2018-05-03T05:17:45.093Z,55.40
2018-05-03T05:20:13.586Z,56.20
2018-05-03T05:22:41.642Z,58.60
2018-05-03T05:25:09.698Z,52.00
2018-05-03T05:27:38.108Z,51.00
2018-05-03T05:30:06.204Z,47.07
2018-05-03T05:32:35.036Z,47.93
2018-05-03T05:35:03.549Z,44.93
2018-05-03T05:37:31.635Z,45.37
2018-05-03T05:40:00.468Z,47.47
2018-05-03T05:42:29.469Z,46.17
2018-05-03T05:44:57.542Z,49.50
2018-05-03T05:47:25.615Z,49.77
2018-05-03T05:49:54.124Z,58.53
2018-05-03T05:52:22.224Z,47.87
2018-05-03T05:54:51.061Z,48.20
2018-05-03T05:57:19.574Z,51.13
2018-05-03T05:59:47.645Z,50.93
2018-05-03T06:02:15.748Z,50.67
2018-05-03T06:04:44.400Z,56.57
2018-05-03T06:07:12.465Z,50.90
2018-05-03T06:09:40.553Z,57.03
2018-05-03T06:12:09.524Z,46.97
2018-05-03T06:14:37.620Z,52.10
2018-05-03T06:17:06.456Z,48.47
2018-05-03T06:19:34.964Z,50.37
2018-05-03T06:22:03.042Z,54.93
2018-05-03T06:24:31.108Z,50.67
2018-05-03T06:26:59.796Z,52.30
2018-05-03T06:29:27.880Z,54.13
2018-05-03T06:31:56.090Z,47.60
2018-05-03T06:34:24.330Z,53.27
2018-05-03T06:36:52.392Z,53.57
2018-05-03T06:39:20.469Z,51.40
2018-05-03T06:41:48.836Z,52.73
2018-05-03T06:44:17.267Z,54.37
2018-05-03T06:46:46.085Z,52.30
2018-05-03T06:49:14.591Z,61.90
2018-05-03T06:51:42.649Z,50.80
2018-05-03T06:54:10.749Z,58.03
2018-05-03T06:56:39.740Z,49.53
2018-05-03T06:59:07.806Z,47.00
2018-05-03T07:01:35.884Z,45.30
2018-05-03T07:04:05.184Z,45.90
2018-05-03T07:06:33.241Z,44.80
2018-05-03T07:09:01.334Z,43.07
2018-05-03T07:11:30.222Z,43.23
2018-05-03T07:13:58.293Z,41.67
2018-05-03T07:16:26.394Z,42.30
2018-05-03T07:18:54.819Z,44.13
2018-05-03T07:21:22.888Z,43.70
2018-05-03T07:23:50.978Z,37.87
2018-05-03T07:26:19.103Z,46.37
2018-05-03T07:28:47.163Z,39.10
2018-05-03T07:31:15.239Z,42.93
2018-05-03T07:33:43.545Z,39.50
2018-05-03T07:36:11.608Z,40.27
2018-05-03T07:38:39.691Z,39.47
2018-05-03T07:41:07.813Z,38.77
2018-05-03T07:43:35.891Z,37.10
2018-05-03T07:46:04.054Z,40.60
2018-05-03T07:48:32.664Z,40.40
2018-05-03T07:51:00.681Z,40.47
2018-05-03T07:53:29.510Z,44.13
2018-05-03T07:55:57.625Z,36.87
2018-05-03T07:58:25.687Z,35.30
2018-05-03T08:00:53.755Z,34.43
2018-05-03T08:03:22.257Z,34.37
2018-05-03T08:05:50.325Z,31.03
2018-05-03T08:08:18.392Z,37.73
2018-05-03T08:10:47.085Z,35.67
2018-05-03T08:13:15.156Z,32.17
2018-05-03T08:15:43.236Z,31.50
2018-05-03T08:18:12.229Z,35.53
2018-05-03T08:20:41.057Z,33.37
2018-05-03T08:23:09.128Z,31.70
2018-05-03T08:25:37.637Z,36.50
2018-05-03T08:28:05.715Z,32.77
2018-05-03T08:30:33.797Z,37.67
2018-05-03T08:33:02.470Z,32.17
2018-05-03T08:35:30.551Z,27.87
2018-05-03T08:37:58.618Z,31.03
2018-05-03T08:40:27.022Z,29.70
2018-05-03T08:42:55.868Z,29.00
2018-05-03T08:45:23.936Z,29.90
2018-05-03T08:47:53.535Z,29.90
2018-05-03T08:50:21.634Z,28.10
2018-05-03T08:52:49.710Z,28.23
2018-05-03T08:55:18.206Z,25.77
2018-05-03T08:57:46.277Z,24.23
2018-05-03T09:00:14.357Z,30.80
2018-05-03T09:02:43.242Z,24.50
2018-05-03T09:05:11.335Z,27.20
2018-05-03T09:07:39.456Z,29.47
2018-05-03T09:10:07.850Z,25.63
2018-05-03T09:12:35.922Z,31.20
2018-05-03T09:15:03.984Z,25.93
2018-05-03T09:17:32.422Z,24.97
2018-05-03T09:20:00.494Z,26.10
2018-05-03T09:22:28.604Z,32.17
2018-05-03T09:24:56.671Z,25.30
2018-05-03T09:27:24.754Z,23.57
2018-05-03T09:29:52.813Z,27.73
2018-05-03T09:32:21.222Z,26.27
2018-05-03T09:34:49.301Z,24.90
2018-05-03T09:37:17.361Z,27.50
2018-05-03T09:39:45.779Z,28.93
2018-05-03T09:42:13.918Z,28.23
2018-05-03T09:44:42.016Z,27.30
2018-05-03T09:47:10.469Z,24.30
2018-05-03T09:49:39.796Z,28.90
2018-05-03T09:52:08.594Z,25.17
2018-05-03T09:54:36.812Z,26.67
2018-05-03T09:57:04.900Z,25.03
2018-05-03T09:59:33.724Z,21.17
2018-05-03T10:02:01.862Z,24.07
2018-05-03T10:04:29.947Z,21.03
2018-05-03T10:06:58.011Z,22.13
2018-05-03T10:09:26.172Z,18.37
2018-05-03T10:11:54.245Z,19.90
2018-05-03T10:14:22.324Z,19.47
2018-05-03T10:16:51.600Z,20.10
2018-05-03T10:19:19.682Z,20.90
2018-05-03T10:21:47.756Z,20.60
2018-05-03T10:24:16.116Z,19.40
2018-05-03T10:26:44.193Z,16.57
2018-05-03T10:29:12.263Z,18.60
2018-05-03T10:31:40.654Z,18.20
2018-05-03T10:34:08.718Z,15.70
2018-05-03T10:36:36.786Z,23.27
2018-05-03T10:39:05.208Z,19.80
2018-05-03T10:41:33.267Z,15.93
2018-05-03T10:44:02.091Z,20.53
2018-05-03T10:46:30.610Z,14.30
2018-05-03T10:48:58.711Z,17.33
2018-05-03T10:51:28.336Z,14.50
2018-05-03T10:53:57.591Z,20.57
2018-05-03T10:56:25.660Z,14.77
2018-05-03T10:58:53.725Z,16.20
2018-05-03T11:01:22.160Z,15.33
2018-05-03T11:03:50.989Z,20.50
2018-05-03T11:06:19.809Z,14.37
2018-05-03T11:08:49.107Z,16.30
2018-05-03T11:11:17.929Z,20.60
2018-05-03T11:13:45.993Z,13.30
2018-05-03T11:16:14.164Z,20.20
2018-05-03T11:18:42.238Z,14.93
2018-05-03T11:21:10.286Z,12.17
2018-05-03T11:23:39.402Z,14.67
2018-05-03T11:26:07.466Z,14.80
2018-05-03T11:28:35.528Z,19.40
2018-05-03T11:31:03.884Z,13.20
2018-05-03T11:33:31.945Z,14.80
2018-05-03T11:36:00.017Z,15.67
2018-05-03T11:38:28.416Z,13.50
2018-05-03T11:40:57.243Z,16.57
2018-05-03T11:43:25.308Z,14.33
2018-05-03T11:45:53.878Z,14.73
2018-05-03T11:48:21.944Z,12.70
2018-05-03T11:50:50.014Z,13.70
2018-05-03T11:53:19.329Z,14.00
2018-05-03T11:55:48.124Z,11.60
2018-05-03T11:58:16.194Z,14.13
2018-05-03T12:00:44.756Z,17.60
2018-05-03T12:03:13.580Z,14.27
2018-05-03T12:05:41.637Z,11.43
2018-05-03T12:08:09.906Z,13.27
2018-05-03T12:10:37.972Z,12.63
2018-05-03T12:13:06.038Z,11.67
2018-05-03T12:15:34.381Z,16.70
2018-05-03T12:18:02.446Z,13.07
2018-05-03T12:20:30.497Z,11.87
2018-05-03T12:22:58.645Z,11.00
2018-05-03T12:25:26.712Z,11.93
2018-05-03T12:27:54.802Z,12.70
2018-05-03T12:30:23.131Z,12.97
2018-05-03T12:32:51.958Z,13.00
2018-05-03T12:35:20.026Z,12.30
2018-05-03T12:37:48.252Z,17.07
2018-05-03T12:40:16.321Z,13.20
2018-05-03T12:42:44.389Z,11.40
2018-05-03T12:45:12.576Z,12.00
2018-05-03T12:47:40.630Z,15.77
2018-05-03T12:50:08.733Z,15.87
2018-05-03T12:52:37.288Z,14.07
2018-05-03T12:55:05.827Z,11.90
2018-05-03T12:57:33.896Z,10.83
2018-05-03T13:00:02.088Z,15.57
2018-05-03T13:02:30.182Z,12.43
2018-05-03T13:04:58.240Z,19.93
2018-05-03T13:07:26.664Z,14.00
2018-05-03T13:09:55.520Z,15.40
2018-05-03T13:12:23.592Z,10.50
2018-05-03T13:14:52.078Z,10.10
2018-05-03T13:17:20.173Z,9.80
2018-05-03T13:19:48.998Z,10.90
2018-05-03T13:22:17.520Z,15.30
2018-05-03T13:24:45.606Z,12.07
2018-05-03T13:27:14.434Z,10.00
2018-05-03T13:29:42.642Z,9.67
2018-05-03T13:32:10.717Z,10.97
2018-05-03T13:34:38.784Z,13.03
2018-05-03T13:37:07.042Z,10.20
2018-05-03T13:39:35.137Z,9.27
2018-05-03T13:42:03.192Z,13.37
2018-05-03T13:44:31.396Z,10.90
2018-05-03T13:46:59.458Z,14.03
2018-05-03T13:49:27.536Z,17.30
2018-05-03T13:51:56.818Z,9.87
2018-05-03T13:54:24.934Z,11.13
2018-05-03T13:56:54.370Z,12.03
2018-05-03T13:59:22.584Z,11.67
2018-05-03T14:01:50.644Z,9.83
2018-05-03T14:04:18.709Z,9.93
2018-05-03T14:06:47.102Z,12.33
2018-05-03T14:09:15.176Z,10.00
2018-05-03T14:11:43.248Z,14.67
2018-05-03T14:14:11.945Z,9.73
2018-05-03T14:16:39.987Z,11.13
2018-05-03T14:19:08.053Z,12.70
2018-05-03T14:21:36.241Z,17.10
2018-05-03T14:24:04.328Z,18.00
2018-05-03T14:26:32.388Z,18.20
2018-05-03T14:29:00.506Z,14.40
2018-05-03T14:31:28.614Z,11.73
2018-05-03T14:33:56.672Z,12.17
2018-05-03T14:36:24.823Z,9.43
2018-05-03T14:38:52.882Z,13.70
2018-05-03T14:41:21.705Z,11.57
2018-05-03T14:43:50.013Z,10.33
2018-05-03T14:46:18.093Z,12.10
2018-05-03T14:48:46.165Z,9.93
2018-05-03T14:51:14.589Z,13.10
2018-05-03T14:53:42.661Z,23.00
2018-05-03T14:56:10.739Z,19.07
2018-05-03T14:58:39.842Z,23.90
2018-05-03T15:01:07.900Z,21.80
2018-05-03T15:03:35.965Z,21.03
2018-05-03T15:06:04.517Z,26.00
2018-05-03T15:08:33.351Z,21.33
2018-05-03T15:11:01.430Z,18.50
2018-05-03T15:13:29.936Z,26.03
2018-05-03T15:15:58.029Z,20.30
2018-05-03T15:18:26.860Z,18.37
2018-05-03T15:20:55.383Z,20.00
2018-05-03T15:23:23.522Z,19.93
2018-05-03T15:25:51.518Z,26.13
2018-05-03T15:28:19.681Z,18.90
2018-05-03T15:30:47.735Z,19.53
2018-05-03T15:33:15.796Z,23.73
2018-05-03T15:35:44.228Z,24.30
2018-05-03T15:38:12.304Z,20.30
2018-05-03T15:40:41.136Z,22.23
2018-05-03T15:43:09.589Z,20.33
2018-05-03T15:45:37.653Z,20.43
2018-05-03T15:48:06.472Z,20.70
2018-05-03T15:50:35.018Z,20.23
2018-05-03T15:53:03.866Z,20.93
2018-05-03T15:55:31.941Z,22.33
2018-05-03T15:58:00.453Z,20.53
2018-05-03T16:00:29.769Z,19.13
2018-05-03T16:02:58.111Z,19.77
2018-05-03T16:05:26.208Z,26.97
2018-05-03T16:07:55.029Z,19.90
2018-05-03T16:10:23.544Z,21.30
2018-05-03T16:12:51.650Z,23.63
2018-05-03T16:15:20.488Z,22.57
2018-05-03T16:17:48.687Z,21.70
2018-05-03T16:20:16.779Z,19.53
2018-05-03T16:22:45.619Z,23.47
2018-05-03T16:25:13.824Z,22.40
2018-05-03T16:27:41.937Z,20.10
2018-05-03T16:30:10.010Z,25.60
2018-05-03T16:32:38.347Z,19.50
2018-05-03T16:35:06.454Z,19.73
2018-05-03T16:37:35.281Z,20.97
2018-05-03T16:40:03.800Z,21.33
2018-05-03T16:42:31.906Z,27.90
2018-05-03T16:44:59.973Z,22.17
2018-05-03T16:47:28.617Z,34.23
2018-05-03T16:49:56.719Z,18.43
2018-05-03T16:52:25.626Z,19.60
2018-05-03T16:54:53.751Z,22.30
2018-05-03T16:57:21.968Z,23.27
2018-05-03T16:59:50.035Z,24.50
2018-05-03T17:02:18.939Z,22.10
2018-05-03T17:04:47.783Z,19.57
2018-05-03T17:07:15.843Z,22.17
2018-05-03T17:09:44.321Z,24.50
2018-05-03T17:12:12.394Z,22.97
2018-05-03T17:14:40.462Z,19.30
2018-05-03T17:17:08.848Z,23.67
2018-05-03T17:19:36.917Z,21.33
2018-05-03T17:22:04.978Z,17.03
2018-05-03T17:24:33.377Z,17.67
2018-05-03T17:27:01.461Z,27.97
2018-05-03T17:29:30.292Z,23.47
2018-05-03T17:31:58.804Z,22.00
2018-05-03T17:34:27.038Z,17.00
2018-05-03T17:36:55.103Z,20.43
2018-05-03T17:39:23.342Z,18.10
2018-05-03T17:41:51.457Z,17.47
2018-05-03T17:44:19.545Z,18.20
2018-05-03T17:46:47.852Z,17.00
2018-05-03T17:49:15.932Z,16.83
2018-05-03T17:51:43.996Z,17.17
2018-05-03T17:54:12.367Z,22.67
2018-05-03T17:56:40.444Z,22.83
2018-05-03T17:59:08.519Z,23.70
2018-05-03T18:01:36.692Z,16.50
2018-05-03T18:04:05.625Z,19.40
2018-05-03T18:06:34.428Z,18.57
2018-05-03T18:09:02.551Z,16.63
2018-05-03T18:11:30.614Z,17.20
2018-05-03T18:13:58.682Z,20.67
2018-05-03T18:16:27.205Z,18.27
2018-05-03T18:18:56.018Z,16.67
2018-05-03T18:21:24.170Z,20.07
2018-05-03T18:23:52.640Z,23.40
2018-05-03T18:26:21.473Z,19.80
2018-05-03T18:28:49.540Z,17.10
2018-05-03T18:31:17.697Z,20.10
2018-05-03T18:33:45.773Z,17.00
2018-05-03T18:36:13.837Z,16.67
2018-05-03T18:38:41.995Z,22.37
2018-05-03T18:41:10.067Z,18.53
2018-05-03T18:43:38.180Z,19.33
2018-05-03T18:46:06.807Z,18.13
2018-05-03T18:48:35.635Z,15.93
2018-05-03T18:51:04.621Z,14.97
2018-05-03T18:53:33.195Z,19.10
2018-05-03T18:56:01.250Z,15.30
2018-05-03T18:58:29.343Z,18.97
2018-05-03T19:00:57.562Z,16.43
2018-05-03T19:03:25.563Z,16.80
2018-05-03T19:05:53.974Z,16.37
2018-05-03T19:08:22.209Z,14.93
2018-05-03T19:10:51.040Z,16.67
2018-05-03T19:13:19.195Z,15.03
2018-05-03T19:15:47.327Z,22.03
2018-05-03T19:18:15.385Z,13.83
2018-05-03T19:20:43.530Z,14.50
2018-05-03T19:23:11.882Z,15.20
2018-05-03T19:25:39.962Z,16.57
2018-05-03T19:28:08.015Z,19.13
2018-05-03T19:30:37.315Z,18.97
2018-05-03T19:33:06.145Z,13.23
2018-05-03T19:35:34.272Z,14.73
2018-05-03T19:38:02.356Z,21.03
2018-05-03T19:40:30.433Z,16.73
2018-05-03T19:42:58.502Z,26.33
2018-05-03T19:45:26.957Z,13.00
2018-05-03T19:47:55.786Z,19.97
2018-05-03T19:50:23.871Z,12.27
2018-05-03T19:52:52.398Z,14.20
2018-05-03T19:55:20.520Z,15.50
2018-05-03T19:57:48.519Z,14.67
2018-05-03T20:00:16.654Z,14.67
2018-05-03T20:02:44.704Z,21.33
2018-05-03T20:05:12.770Z,16.73
2018-05-03T20:07:42.504Z,12.53
2018-05-03T20:10:10.574Z,17.33
2018-05-03T20:12:38.640Z,17.83
2018-05-03T20:15:06.816Z,15.30
2018-05-03T20:17:34.932Z,15.63
2018-05-03T20:20:03.009Z,15.80
2018-05-03T20:22:31.682Z,13.90
2018-05-03T20:25:00.209Z,16.83
2018-05-03T20:27:28.300Z,12.70
2018-05-03T20:29:56.656Z,14.80
2018-05-03T20:32:25.012Z,20.33
2018-05-03T20:34:53.085Z,21.37
2018-05-03T20:37:21.196Z,16.13
2018-05-03T20:39:49.282Z,20.60
2018-05-03T20:42:17.337Z,22.00
2018-05-03T20:44:45.897Z,11.13
2018-05-03T20:47:14.726Z,14.17
2018-05-03T20:49:42.795Z,12.10
2018-05-03T20:52:10.936Z,12.37
2018-05-03T20:54:39.007Z,13.47
2018-05-03T20:57:07.829Z,12.10
2018-05-03T20:59:36.449Z,19.93
2018-05-03T21:02:04.573Z,15.70
2018-05-03T21:04:32.622Z,15.57
2018-05-03T21:07:01.892Z,12.57
2018-05-03T21:09:30.624Z,16.33
2018-05-03T21:11:59.429Z,12.40
2018-05-03T21:14:27.932Z,15.53
2018-05-03T21:16:56.007Z,12.80
2018-05-03T21:19:24.083Z,14.50
2018-05-03T21:21:52.469Z,15.67
2018-05-03T21:24:20.578Z,19.70
2018-05-03T21:26:48.636Z,14.90
2018-05-03T21:29:17.596Z,10.50
2018-05-03T21:31:45.696Z,11.97
2018-05-03T21:34:14.524Z,11.87
2018-05-03T21:39:17.404Z,17.40
2018-05-03T21:41:45.729Z,12.53
2018-05-03T21:44:14.499Z,14.60
2018-05-03T21:46:42.567Z,18.57
2018-05-03T21:49:11.086Z,18.43
2018-05-03T21:51:39.145Z,11.07
2018-05-03T21:54:07.212Z,11.57
2018-05-03T21:56:35.656Z,13.67
2018-05-03T21:59:03.720Z,16.60
2018-05-03T22:01:31.788Z,16.53
2018-05-03T22:04:00.549Z,15.77
2018-05-03T22:06:28.496Z,12.27
2018-05-03T22:08:56.572Z,17.93
2018-05-03T22:11:24.848Z,16.37
2018-05-03T22:13:52.991Z,15.80
2018-05-03T22:16:21.019Z,15.73
2018-05-03T22:18:49.260Z,14.70
2018-05-03T22:21:17.319Z,15.47
2018-05-03T22:23:45.394Z,13.47
2018-05-03T22:26:13.678Z,13.23
2018-05-03T22:28:41.758Z,12.40
2018-05-03T22:31:09.817Z,12.47
2018-05-03T22:33:38.231Z,12.53
2018-05-03T22:36:08.078Z,14.53
2018-05-03T22:38:36.139Z,11.23
2018-05-03T22:41:04.561Z,14.20
2018-05-03T22:43:32.953Z,14.20
2018-05-03T22:46:01.002Z,15.40
2018-05-03T22:48:29.225Z,11.10
2018-05-03T22:50:57.316Z,14.10
2018-05-03T22:53:25.388Z,13.13
2018-05-03T22:55:53.605Z,11.23
2018-05-03T22:58:21.702Z,12.23
2018-05-03T23:00:50.535Z,14.07
2018-05-03T23:03:18.748Z,11.70
2018-05-03T23:05:46.837Z,17.10
2018-05-03T23:08:15.667Z,11.93
2018-05-03T23:10:44.181Z,12.50
2018-05-03T23:13:12.917Z,13.77
2018-05-03T23:15:41.715Z,16.03
2018-05-03T23:18:09.928Z,15.87
2018-05-03T23:20:38.005Z,17.03
2018-05-03T23:23:06.071Z,14.60
2018-05-03T23:25:34.481Z,12.33
2018-05-03T23:28:03.329Z,12.83
2018-05-03T23:30:31.485Z,13.00
2018-05-03T23:32:59.897Z,13.30
2018-05-03T23:35:27.994Z,11.07
2018-05-03T23:37:56.818Z,11.47
2018-05-03T23:40:25.330Z,14.40
2018-05-03T23:42:53.444Z,18.40
2018-05-03T23:45:21.522Z,20.27
2018-05-03T23:47:49.858Z,13.93
2018-05-03T23:50:18.274Z,15.43
2018-05-03T23:52:46.353Z,12.03
2018-05-03T23:55:14.426Z,11.20
2018-05-03T23:57:42.750Z,14.73
